sensor_id;sensor_type;location;lat;lon;timestamp;temperature;humidity
24522;DHT22;12680;57.804;12.190;2023-04-29T00:01:04;8.20;90.70
24522;DHT22;12680;57.804;12.190;2023-04-29T00:03:31;8.20;90.80
24522;DHT22;12680;57.804;12.190;2023-04-29T00:05:59;8.30;90.80
24522;DHT22;12680;57.804;12.190;2023-04-29T00:08:27;8.30;90.90
24522;DHT22;12680;57.804;12.190;2023-04-29T00:10:54;8.30;90.90
24522;DHT22;12680;57.804;12.190;2023-04-29T00:13:21;8.30;91.00
24522;DHT22;12680;57.804;12.190;2023-04-29T00:15:48;8.30;91.00
24522;DHT22;12680;57.804;12.190;2023-04-29T00:18:16;8.20;91.00
24522;DHT22;12680;57.804;12.190;2023-04-29T00:20:43;9.70;91.60
24522;DHT22;12680;57.804;12.190;2023-04-29T00:23:10;8.20;91.20
24522;DHT22;12680;57.804;12.190;2023-04-29T00:25:37;8.20;91.40
24522;DHT22;12680;57.804;12.190;2023-04-29T00:28:05;8.30;91.40
24522;DHT22;12680;57.804;12.190;2023-04-29T00:30:32;8.30;91.30
24522;DHT22;12680;57.804;12.190;2023-04-29T00:33:00;8.20;91.30
24522;DHT22;12680;57.804;12.190;2023-04-29T00:35:27;8.20;91.30
24522;DHT22;12680;57.804;12.190;2023-04-29T00:37:54;8.20;91.50
24522;DHT22;12680;57.804;12.190;2023-04-29T00:40:21;8.20;91.40
24522;DHT22;12680;57.804;12.190;2023-04-29T00:42:48;8.20;91.40
24522;DHT22;12680;57.804;12.190;2023-04-29T00:45:16;8.10;91.30
24522;DHT22;12680;57.804;12.190;2023-04-29T00:47:43;8.10;91.30
24522;DHT22;12680;57.804;12.190;2023-04-29T00:50:10;8.00;91.40
24522;DHT22;12680;57.804;12.190;2023-04-29T00:52:37;8.00;91.50
24522;DHT22;12680;57.804;12.190;2023-04-29T00:55:06;8.00;91.50
24522;DHT22;12680;57.804;12.190;2023-04-29T00:57:34;7.90;91.50
24522;DHT22;12680;57.804;12.190;2023-04-29T01:00:01;7.90;91.60
24522;DHT22;12680;57.804;12.190;2023-04-29T01:02:29;7.90;91.60
24522;DHT22;12680;57.804;12.190;2023-04-29T01:04:57;7.80;91.50
24522;DHT22;12680;57.804;12.190;2023-04-29T01:10:34;7.80;91.70
24522;DHT22;12680;57.804;12.190;2023-04-29T01:18:25;7.80;91.90
24522;DHT22;12680;57.804;12.190;2023-04-29T01:20:52;7.90;91.90
24522;DHT22;12680;57.804;12.190;2023-04-29T01:23:19;7.90;92.00
24522;DHT22;12680;57.804;12.190;2023-04-29T01:25:46;7.90;92.00
24522;DHT22;12680;57.804;12.190;2023-04-29T01:31:37;8.00;92.20
24522;DHT22;12680;57.804;12.190;2023-04-29T01:34:13;7.90;92.10
24522;DHT22;12680;57.804;12.190;2023-04-29T01:37:01;7.90;92.00
24522;DHT22;12680;57.804;12.190;2023-04-29T01:39:53;7.80;91.90
24522;DHT22;12680;57.804;12.190;2023-04-29T01:42:29;7.80;92.10
24522;DHT22;12680;57.804;12.190;2023-04-29T01:45:00;7.80;92.10
24522;DHT22;12680;57.804;12.190;2023-04-29T01:47:31;7.70;92.10
24522;DHT22;12680;57.804;12.190;2023-04-29T01:49:59;7.70;92.10
24522;DHT22;12680;57.804;12.190;2023-04-29T01:52:28;7.70;92.20
24522;DHT22;12680;57.804;12.190;2023-04-29T01:54:55;7.70;92.20
24522;DHT22;12680;57.804;12.190;2023-04-29T01:57:23;7.60;92.10
24522;DHT22;12680;57.804;12.190;2023-04-29T01:59:50;7.60;92.20
24522;DHT22;12680;57.804;12.190;2023-04-29T02:02:18;7.60;92.30
24522;DHT22;12680;57.804;12.190;2023-04-29T02:04:49;7.60;92.30
24522;DHT22;12680;57.804;12.190;2023-04-29T02:07:16;7.50;92.40
24522;DHT22;12680;57.804;12.190;2023-04-29T02:09:43;8.10;92.60
24522;DHT22;12680;57.804;12.190;2023-04-29T02:12:10;7.50;92.50
24522;DHT22;12680;57.804;12.190;2023-04-29T02:14:37;7.50;92.60
24522;DHT22;12680;57.804;12.190;2023-04-29T02:17:05;7.40;92.50
24522;DHT22;12680;57.804;12.190;2023-04-29T02:19:32;7.40;92.50
24522;DHT22;12680;57.804;12.190;2023-04-29T02:21:59;7.30;92.60
24522;DHT22;12680;57.804;12.190;2023-04-29T02:24:26;7.30;92.60
24522;DHT22;12680;57.804;12.190;2023-04-29T02:26:53;7.30;92.60
24522;DHT22;12680;57.804;12.190;2023-04-29T02:29:20;7.20;92.60
24522;DHT22;12680;57.804;12.190;2023-04-29T02:31:47;7.20;92.80
24522;DHT22;12680;57.804;12.190;2023-04-29T02:34:15;7.20;93.30
24522;DHT22;12680;57.804;12.190;2023-04-29T02:36:41;7.20;93.10
24522;DHT22;12680;57.804;12.190;2023-04-29T02:39:09;7.30;93.10
24522;DHT22;12680;57.804;12.190;2023-04-29T02:41:36;7.30;93.10
24522;DHT22;12680;57.804;12.190;2023-04-29T02:44:03;7.30;93.10
24522;DHT22;12680;57.804;12.190;2023-04-29T02:46:30;7.40;93.00
24522;DHT22;12680;57.804;12.190;2023-04-29T02:48:59;7.30;93.00
24522;DHT22;12680;57.804;12.190;2023-04-29T02:51:27;7.30;92.90
24522;DHT22;12680;57.804;12.190;2023-04-29T02:53:54;7.90;93.00
24522;DHT22;12680;57.804;12.190;2023-04-29T02:56:21;7.10;92.90
24522;DHT22;12680;57.804;12.190;2023-04-29T02:58:49;7.00;93.00
24522;DHT22;12680;57.804;12.190;2023-04-29T03:01:16;7.00;93.10
24522;DHT22;12680;57.804;12.190;2023-04-29T03:03:43;6.90;93.10
24522;DHT22;12680;57.804;12.190;2023-04-29T03:06:10;6.90;93.30
24522;DHT22;12680;57.804;12.190;2023-04-29T03:08:37;8.50;93.70
24522;DHT22;12680;57.804;12.190;2023-04-29T03:11:04;6.90;93.30
24522;DHT22;12680;57.804;12.190;2023-04-29T03:13:32;7.00;93.40
24522;DHT22;12680;57.804;12.190;2023-04-29T03:15:59;7.00;93.40
24522;DHT22;12680;57.804;12.190;2023-04-29T03:18:27;7.00;93.40
24522;DHT22;12680;57.804;12.190;2023-04-29T03:20:54;7.00;93.40
24522;DHT22;12680;57.804;12.190;2023-04-29T03:23:21;7.00;93.50
24522;DHT22;12680;57.804;12.190;2023-04-29T03:25:48;7.00;93.50
24522;DHT22;12680;57.804;12.190;2023-04-29T03:28:15;7.10;93.50
24522;DHT22;12680;57.804;12.190;2023-04-29T03:30:42;6.90;93.40
24522;DHT22;12680;57.804;12.190;2023-04-29T03:33:09;6.80;93.40
24522;DHT22;12680;57.804;12.190;2023-04-29T03:35:36;6.90;93.60
24522;DHT22;12680;57.804;12.190;2023-04-29T03:38:03;6.90;93.80
24522;DHT22;12680;57.804;12.190;2023-04-29T03:40:30;7.00;93.70
24522;DHT22;12680;57.804;12.190;2023-04-29T03:42:57;7.00;93.80
24522;DHT22;12680;57.804;12.190;2023-04-29T03:45:24;7.00;93.80
24522;DHT22;12680;57.804;12.190;2023-04-29T03:47:51;7.00;93.90
24522;DHT22;12680;57.804;12.190;2023-04-29T03:50:19;7.10;93.90
24522;DHT22;12680;57.804;12.190;2023-04-29T03:52:46;7.10;93.90
24522;DHT22;12680;57.804;12.190;2023-04-29T03:55:13;7.20;93.90
24522;DHT22;12680;57.804;12.190;2023-04-29T03:57:40;7.10;93.80
24522;DHT22;12680;57.804;12.190;2023-04-29T04:00:08;7.10;93.80
24522;DHT22;12680;57.804;12.190;2023-04-29T04:02:35;7.10;94.00
24522;DHT22;12680;57.804;12.190;2023-04-29T04:05:03;7.10;93.70
24522;DHT22;12680;57.804;12.190;2023-04-29T04:07:30;7.10;93.80
24522;DHT22;12680;57.804;12.190;2023-04-29T04:09:57;7.10;93.80
24522;DHT22;12680;57.804;12.190;2023-04-29T04:12:24;7.10;93.90
24522;DHT22;12680;57.804;12.190;2023-04-29T04:14:51;7.10;94.10
24522;DHT22;12680;57.804;12.190;2023-04-29T04:17:18;7.10;94.10
24522;DHT22;12680;57.804;12.190;2023-04-29T04:19:45;7.10;94.10
24522;DHT22;12680;57.804;12.190;2023-04-29T04:22:12;7.10;94.10
24522;DHT22;12680;57.804;12.190;2023-04-29T04:24:39;7.10;94.20
24522;DHT22;12680;57.804;12.190;2023-04-29T04:27:06;7.20;94.30
24522;DHT22;12680;57.804;12.190;2023-04-29T04:29:33;7.20;94.40
24522;DHT22;12680;57.804;12.190;2023-04-29T04:32:00;7.30;94.30
24522;DHT22;12680;57.804;12.190;2023-04-29T04:34:28;7.30;94.20
24522;DHT22;12680;57.804;12.190;2023-04-29T04:36:55;7.40;94.30
24522;DHT22;12680;57.804;12.190;2023-04-29T04:39:22;7.40;94.30
24522;DHT22;12680;57.804;12.190;2023-04-29T04:41:49;7.40;94.30
24522;DHT22;12680;57.804;12.190;2023-04-29T04:44:16;8.30;94.60
24522;DHT22;12680;57.804;12.190;2023-04-29T04:46:43;7.60;94.40
24522;DHT22;12680;57.804;12.190;2023-04-29T04:49:10;7.60;94.30
24522;DHT22;12680;57.804;12.190;2023-04-29T04:51:37;7.70;94.30
24522;DHT22;12680;57.804;12.190;2023-04-29T04:54:04;7.80;94.30
24522;DHT22;12680;57.804;12.190;2023-04-29T04:56:31;7.90;94.30
24522;DHT22;12680;57.804;12.190;2023-04-29T04:58:57;7.90;94.30
24522;DHT22;12680;57.804;12.190;2023-04-29T05:01:24;7.90;94.30
24522;DHT22;12680;57.804;12.190;2023-04-29T05:03:51;8.00;94.30
24522;DHT22;12680;57.804;12.190;2023-04-29T05:06:18;8.00;94.30
24522;DHT22;12680;57.804;12.190;2023-04-29T05:08:45;8.10;94.30
24522;DHT22;12680;57.804;12.190;2023-04-29T05:11:16;8.10;94.30
24522;DHT22;12680;57.804;12.190;2023-04-29T05:13:44;8.10;94.20
24522;DHT22;12680;57.804;12.190;2023-04-29T05:16:11;8.20;94.20
24522;DHT22;12680;57.804;12.190;2023-04-29T05:18:38;8.20;94.20
24522;DHT22;12680;57.804;12.190;2023-04-29T05:21:05;8.40;94.20
24522;DHT22;12680;57.804;12.190;2023-04-29T05:23:32;8.40;94.10
24522;DHT22;12680;57.804;12.190;2023-04-29T05:25:59;8.40;94.10
24522;DHT22;12680;57.804;12.190;2023-04-29T05:28:26;8.60;94.20
24522;DHT22;12680;57.804;12.190;2023-04-29T05:30:54;8.70;94.10
24522;DHT22;12680;57.804;12.190;2023-04-29T05:33:21;8.80;94.10
24522;DHT22;12680;57.804;12.190;2023-04-29T05:35:48;8.90;93.80
24522;DHT22;12680;57.804;12.190;2023-04-29T05:38:15;9.00;93.80
24522;DHT22;12680;57.804;12.190;2023-04-29T05:40:41;9.00;93.60
24522;DHT22;12680;57.804;12.190;2023-04-29T05:43:08;9.10;93.50
24522;DHT22;12680;57.804;12.190;2023-04-29T05:45:35;9.20;93.50
24522;DHT22;12680;57.804;12.190;2023-04-29T05:48:02;9.20;93.30
24522;DHT22;12680;57.804;12.190;2023-04-29T05:50:29;9.30;93.40
24522;DHT22;12680;57.804;12.190;2023-04-29T05:52:56;9.40;93.30
24522;DHT22;12680;57.804;12.190;2023-04-29T05:55:23;9.40;93.30
24522;DHT22;12680;57.804;12.190;2023-04-29T05:57:50;9.50;93.20
24522;DHT22;12680;57.804;12.190;2023-04-29T06:00:17;9.60;93.20
24522;DHT22;12680;57.804;12.190;2023-04-29T06:02:44;9.60;93.10
24522;DHT22;12680;57.804;12.190;2023-04-29T06:05:25;9.70;93.10
24522;DHT22;12680;57.804;12.190;2023-04-29T06:07:53;9.80;93.00
24522;DHT22;12680;57.804;12.190;2023-04-29T06:10:20;9.80;92.80
24522;DHT22;12680;57.804;12.190;2023-04-29T06:12:47;9.80;92.80
24522;DHT22;12680;57.804;12.190;2023-04-29T06:15:17;9.80;92.90
24522;DHT22;12680;57.804;12.190;2023-04-29T06:17:44;9.90;93.00
24522;DHT22;12680;57.804;12.190;2023-04-29T06:20:11;10.00;93.00
24522;DHT22;12680;57.804;12.190;2023-04-29T06:22:39;10.00;93.00
24522;DHT22;12680;57.804;12.190;2023-04-29T06:25:06;10.00;92.90
24522;DHT22;12680;57.804;12.190;2023-04-29T06:27:33;10.00;92.80
24522;DHT22;12680;57.804;12.190;2023-04-29T06:30:00;10.00;92.80
24522;DHT22;12680;57.804;12.190;2023-04-29T06:32:27;10.00;92.90
24522;DHT22;12680;57.804;12.190;2023-04-29T06:34:55;10.00;92.90
24522;DHT22;12680;57.804;12.190;2023-04-29T06:37:22;10.10;93.00
24522;DHT22;12680;57.804;12.190;2023-04-29T06:39:49;10.10;93.10
24522;DHT22;12680;57.804;12.190;2023-04-29T06:42:15;10.30;93.20
24522;DHT22;12680;57.804;12.190;2023-04-29T06:44:43;10.30;93.10
24522;DHT22;12680;57.804;12.190;2023-04-29T06:47:10;10.40;93.40
24522;DHT22;12680;57.804;12.190;2023-04-29T06:49:37;10.40;93.10
24522;DHT22;12680;57.804;12.190;2023-04-29T06:52:05;10.50;93.00
24522;DHT22;12680;57.804;12.190;2023-04-29T06:54:32;10.60;93.10
24522;DHT22;12680;57.804;12.190;2023-04-29T06:56:59;10.70;93.10
24522;DHT22;12680;57.804;12.190;2023-04-29T06:59:26;10.80;92.90
24522;DHT22;12680;57.804;12.190;2023-04-29T07:01:53;10.80;92.90
24522;DHT22;12680;57.804;12.190;2023-04-29T07:04:20;10.90;92.90
24522;DHT22;12680;57.804;12.190;2023-04-29T07:06:48;10.90;92.80
24522;DHT22;12680;57.804;12.190;2023-04-29T07:09:15;10.90;92.80
24522;DHT22;12680;57.804;12.190;2023-04-29T07:11:43;10.90;92.80
24522;DHT22;12680;57.804;12.190;2023-04-29T07:14:10;10.80;92.80
24522;DHT22;12680;57.804;12.190;2023-04-29T07:16:37;10.80;92.90
24522;DHT22;12680;57.804;12.190;2023-04-29T07:19:04;10.80;92.90
24522;DHT22;12680;57.804;12.190;2023-04-29T07:21:32;10.80;93.00
24522;DHT22;12680;57.804;12.190;2023-04-29T07:23:59;10.90;93.10
24522;DHT22;12680;57.804;12.190;2023-04-29T07:26:28;11.00;93.10
24522;DHT22;12680;57.804;12.190;2023-04-29T07:28:55;11.10;93.20
24522;DHT22;12680;57.804;12.190;2023-04-29T07:31:22;11.20;93.00
24522;DHT22;12680;57.804;12.190;2023-04-29T07:33:49;11.30;92.90
24522;DHT22;12680;57.804;12.190;2023-04-29T07:36:17;11.30;92.80
24522;DHT22;12680;57.804;12.190;2023-04-29T07:38:44;11.40;92.80
24522;DHT22;12680;57.804;12.190;2023-04-29T07:41:11;11.40;92.80
24522;DHT22;12680;57.804;12.190;2023-04-29T07:43:38;11.40;92.90
24522;DHT22;12680;57.804;12.190;2023-04-29T07:46:08;11.40;92.90
24522;DHT22;12680;57.804;12.190;2023-04-29T07:48:38;11.30;92.80
24522;DHT22;12680;57.804;12.190;2023-04-29T07:51:05;11.20;92.80
24522;DHT22;12680;57.804;12.190;2023-04-29T07:53:32;11.20;92.90
24522;DHT22;12680;57.804;12.190;2023-04-29T07:56:04;11.20;93.00
24522;DHT22;12680;57.804;12.190;2023-04-29T07:58:31;12.80;93.60
24522;DHT22;12680;57.804;12.190;2023-04-29T08:01:05;11.10;93.20
24522;DHT22;12680;57.804;12.190;2023-04-29T08:03:32;11.10;93.40
24522;DHT22;12680;57.804;12.190;2023-04-29T08:06:01;11.10;93.50
24522;DHT22;12680;57.804;12.190;2023-04-29T08:08:29;11.10;93.50
24522;DHT22;12680;57.804;12.190;2023-04-29T08:10:56;12.30;93.90
24522;DHT22;12680;57.804;12.190;2023-04-29T08:13:23;10.90;93.50
24522;DHT22;12680;57.804;12.190;2023-04-29T08:15:50;10.80;93.60
24522;DHT22;12680;57.804;12.190;2023-04-29T08:18:17;10.70;93.70
24522;DHT22;12680;57.804;12.190;2023-04-29T08:20:44;10.60;93.70
24522;DHT22;12680;57.804;12.190;2023-04-29T08:23:12;10.60;93.60
24522;DHT22;12680;57.804;12.190;2023-04-29T08:25:42;10.60;93.50
24522;DHT22;12680;57.804;12.190;2023-04-29T08:28:10;12.10;93.90
24522;DHT22;12680;57.804;12.190;2023-04-29T08:30:40;10.60;93.50
24522;DHT22;12680;57.804;12.190;2023-04-29T08:33:07;10.60;93.50
24522;DHT22;12680;57.804;12.190;2023-04-29T08:35:35;10.60;93.40
24522;DHT22;12680;57.804;12.190;2023-04-29T08:38:05;10.50;93.40
24522;DHT22;12680;57.804;12.190;2023-04-29T08:40:40;10.50;93.40
24522;DHT22;12680;57.804;12.190;2023-04-29T08:43:08;10.50;93.40
24522;DHT22;12680;57.804;12.190;2023-04-29T08:45:36;10.50;93.60
24522;DHT22;12680;57.804;12.190;2023-04-29T08:48:05;10.60;93.50
24522;DHT22;12680;57.804;12.190;2023-04-29T08:50:42;10.50;93.00
24522;DHT22;12680;57.804;12.190;2023-04-29T08:53:11;10.40;92.60
24522;DHT22;12680;57.804;12.190;2023-04-29T08:55:45;10.40;92.70
24522;DHT22;12680;57.804;12.190;2023-04-29T08:58:14;12.10;92.70
24522;DHT22;12680;57.804;12.190;2023-04-29T09:00:43;10.40;91.80
24522;DHT22;12680;57.804;12.190;2023-04-29T09:03:19;10.60;92.20
24522;DHT22;12680;57.804;12.190;2023-04-29T09:05:52;10.80;91.90
24522;DHT22;12680;57.804;12.190;2023-04-29T09:08:20;10.90;91.80
24522;DHT22;12680;57.804;12.190;2023-04-29T09:10:53;11.00;91.70
24522;DHT22;12680;57.804;12.190;2023-04-29T09:13:26;10.80;91.30
24522;DHT22;12680;57.804;12.190;2023-04-29T09:15:55;10.60;91.40
24522;DHT22;12680;57.804;12.190;2023-04-29T09:18:41;10.40;91.50
24522;DHT22;12680;57.804;12.190;2023-04-29T09:23:50;9.90;92.00
24522;DHT22;12680;57.804;12.190;2023-04-29T09:26:18;9.80;92.40
24522;DHT22;12680;57.804;12.190;2023-04-29T09:28:45;9.90;92.60
24522;DHT22;12680;57.804;12.190;2023-04-29T09:31:13;9.80;92.70
24522;DHT22;12680;57.804;12.190;2023-04-29T09:36:36;9.60;93.00
24522;DHT22;12680;57.804;12.190;2023-04-29T09:39:08;9.60;93.30
24522;DHT22;12680;57.804;12.190;2023-04-29T09:41:39;9.50;93.80
24522;DHT22;12680;57.804;12.190;2023-04-29T09:44:08;9.50;94.20
24522;DHT22;12680;57.804;12.190;2023-04-29T09:46:36;9.40;94.50
24522;DHT22;12680;57.804;12.190;2023-04-29T09:49:03;9.40;94.80
24522;DHT22;12680;57.804;12.190;2023-04-29T09:51:30;11.10;95.40
24522;DHT22;12680;57.804;12.190;2023-04-29T09:53:59;9.60;95.20
24522;DHT22;12680;57.804;12.190;2023-04-29T09:56:27;9.70;95.20
24522;DHT22;12680;57.804;12.190;2023-04-29T09:59:06;9.90;95.30
24522;DHT22;12680;57.804;12.190;2023-04-29T10:01:35;10.10;95.60
24522;DHT22;12680;57.804;12.190;2023-04-29T10:04:03;10.50;95.70
24522;DHT22;12680;57.804;12.190;2023-04-29T10:06:30;10.60;95.50
24522;DHT22;12680;57.804;12.190;2023-04-29T10:08:57;10.80;95.20
24522;DHT22;12680;57.804;12.190;2023-04-29T10:11:25;10.70;95.00
24522;DHT22;12680;57.804;12.190;2023-04-29T10:13:52;10.70;95.10
24522;DHT22;12680;57.804;12.190;2023-04-29T10:16:30;10.90;95.30
24522;DHT22;12680;57.804;12.190;2023-04-29T10:19:03;11.10;95.00
24522;DHT22;12680;57.804;12.190;2023-04-29T10:21:30;11.20;94.60
24522;DHT22;12680;57.804;12.190;2023-04-29T10:23:58;11.20;94.40
24522;DHT22;12680;57.804;12.190;2023-04-29T10:26:27;11.30;93.90
24522;DHT22;12680;57.804;12.190;2023-04-29T10:29:04;11.20;93.80
24522;DHT22;12680;57.804;12.190;2023-04-29T10:31:34;11.10;93.80
24522;DHT22;12680;57.804;12.190;2023-04-29T10:34:02;11.10;93.80
24522;DHT22;12680;57.804;12.190;2023-04-29T10:36:29;11.10;94.00
24522;DHT22;12680;57.804;12.190;2023-04-29T10:38:58;11.10;93.70
24522;DHT22;12680;57.804;12.190;2023-04-29T10:41:30;11.20;93.40
24522;DHT22;12680;57.804;12.190;2023-04-29T10:43:59;11.10;93.20
24522;DHT22;12680;57.804;12.190;2023-04-29T10:46:29;11.10;93.00
24522;DHT22;12680;57.804;12.190;2023-04-29T10:48:59;11.00;93.00
24522;DHT22;12680;57.804;12.190;2023-04-29T10:54:14;10.80;92.90
24522;DHT22;12680;57.804;12.190;2023-04-29T11:02:02;12.50;93.80
24522;DHT22;12680;57.804;12.190;2023-04-29T11:04:30;12.00;93.30
24522;DHT22;12680;57.804;12.190;2023-04-29T11:06:57;11.30;92.90
24522;DHT22;12680;57.804;12.190;2023-04-29T11:09:34;11.30;92.50
24522;DHT22;12680;57.804;12.190;2023-04-29T11:12:04;11.20;92.00
24522;DHT22;12680;57.804;12.190;2023-04-29T11:14:40;11.10;91.60
24522;DHT22;12680;57.804;12.190;2023-04-29T11:19:39;10.90;91.70
24522;DHT22;12680;57.804;12.190;2023-04-29T11:22:23;10.70;91.80
24522;DHT22;12680;57.804;12.190;2023-04-29T11:25:07;10.80;92.40
24522;DHT22;12680;57.804;12.190;2023-04-29T11:27:39;11.00;91.60
24522;DHT22;12680;57.804;12.190;2023-04-29T11:30:08;11.00;91.30
24522;DHT22;12680;57.804;12.190;2023-04-29T11:32:39;11.00;90.70
24522;DHT22;12680;57.804;12.190;2023-04-29T11:35:08;10.90;90.30
24522;DHT22;12680;57.804;12.190;2023-04-29T11:37:35;10.90;90.60
24522;DHT22;12680;57.804;12.190;2023-04-29T11:40:03;11.00;90.10
24522;DHT22;12680;57.804;12.190;2023-04-29T11:42:54;11.10;90.60
24522;DHT22;12680;57.804;12.190;2023-04-29T11:45:20;11.10;90.20
24522;DHT22;12680;57.804;12.190;2023-04-29T11:47:47;11.30;89.80
24522;DHT22;12680;57.804;12.190;2023-04-29T11:50:16;11.20;89.50
24522;DHT22;12680;57.804;12.190;2023-04-29T11:52:46;11.30;89.50
24522;DHT22;12680;57.804;12.190;2023-04-29T11:55:13;11.60;89.60
24522;DHT22;12680;57.804;12.190;2023-04-29T11:57:40;11.70;89.00
24522;DHT22;12680;57.804;12.190;2023-04-29T12:00:11;11.80;88.00
24522;DHT22;12680;57.804;12.190;2023-04-29T12:02:43;11.60;87.50
24522;DHT22;12680;57.804;12.190;2023-04-29T12:05:11;11.70;88.70
24522;DHT22;12680;57.804;12.190;2023-04-29T12:07:43;11.80;88.60
24522;DHT22;12680;57.804;12.190;2023-04-29T12:10:10;11.90;87.80
24522;DHT22;12680;57.804;12.190;2023-04-29T12:12:39;12.10;88.40
24522;DHT22;12680;57.804;12.190;2023-04-29T12:15:10;12.30;88.40
24522;DHT22;12680;57.804;12.190;2023-04-29T12:17:37;12.50;87.60
24522;DHT22;12680;57.804;12.190;2023-04-29T12:20:05;14.10;87.30
24522;DHT22;12680;57.804;12.190;2023-04-29T12:22:34;12.60;85.40
24522;DHT22;12680;57.804;12.190;2023-04-29T12:25:05;13.30;86.30
24522;DHT22;12680;57.804;12.190;2023-04-29T12:27:32;12.40;85.90
24522;DHT22;12680;57.804;12.190;2023-04-29T12:30:00;12.20;86.70
24522;DHT22;12680;57.804;12.190;2023-04-29T12:32:27;13.80;88.00
24522;DHT22;12680;57.804;12.190;2023-04-29T12:34:54;12.30;86.20
24522;DHT22;12680;57.804;12.190;2023-04-29T12:37:21;12.30;86.00
24522;DHT22;12680;57.804;12.190;2023-04-29T12:39:49;12.30;84.50
24522;DHT22;12680;57.804;12.190;2023-04-29T12:42:17;12.30;84.60
24522;DHT22;12680;57.804;12.190;2023-04-29T12:44:45;12.20;83.50
24522;DHT22;12680;57.804;12.190;2023-04-29T12:47:15;11.90;83.50
24522;DHT22;12680;57.804;12.190;2023-04-29T12:49:46;12.00;83.90
24522;DHT22;12680;57.804;12.190;2023-04-29T12:52:13;11.90;81.90
24522;DHT22;12680;57.804;12.190;2023-04-29T12:54:40;11.80;81.40
24522;DHT22;12680;57.804;12.190;2023-04-29T12:57:16;11.80;81.80
24522;DHT22;12680;57.804;12.190;2023-04-29T12:59:43;11.70;81.90
24522;DHT22;12680;57.804;12.190;2023-04-29T13:02:10;12.80;83.90
24522;DHT22;12680;57.804;12.190;2023-04-29T13:04:38;11.80;82.60
24522;DHT22;12680;57.804;12.190;2023-04-29T13:07:05;12.70;82.50
24522;DHT22;12680;57.804;12.190;2023-04-29T13:09:32;13.50;82.70
24522;DHT22;12680;57.804;12.190;2023-04-29T13:12:00;11.80;81.20
24522;DHT22;12680;57.804;12.190;2023-04-29T13:14:28;11.80;81.20
24522;DHT22;12680;57.804;12.190;2023-04-29T13:16:55;11.80;81.80
24522;DHT22;12680;57.804;12.190;2023-04-29T13:19:21;11.90;82.20
24522;DHT22;12680;57.804;12.190;2023-04-29T13:21:51;12.00;81.40
24522;DHT22;12680;57.804;12.190;2023-04-29T13:24:18;12.00;81.60
24522;DHT22;12680;57.804;12.190;2023-04-29T13:26:46;12.10;82.00
24522;DHT22;12680;57.804;12.190;2023-04-29T13:29:17;12.90;82.40
24522;DHT22;12680;57.804;12.190;2023-04-29T13:31:43;12.40;82.90
24522;DHT22;12680;57.804;12.190;2023-04-29T13:34:10;12.10;82.60
24522;DHT22;12680;57.804;12.190;2023-04-29T13:36:37;12.00;83.20
24522;DHT22;12680;57.804;12.190;2023-04-29T13:39:04;12.60;84.20
24522;DHT22;12680;57.804;12.190;2023-04-29T13:41:32;11.80;84.30
24522;DHT22;12680;57.804;12.190;2023-04-29T13:44:01;12.30;84.20
24522;DHT22;12680;57.804;12.190;2023-04-29T13:46:30;11.80;83.90
24522;DHT22;12680;57.804;12.190;2023-04-29T13:48:58;11.90;83.80
24522;DHT22;12680;57.804;12.190;2023-04-29T13:51:28;11.90;82.40
24522;DHT22;12680;57.804;12.190;2023-04-29T13:53:57;11.90;81.60
24522;DHT22;12680;57.804;12.190;2023-04-29T13:56:44;11.90;80.00
24522;DHT22;12680;57.804;12.190;2023-04-29T13:59:14;11.90;80.20
24522;DHT22;12680;57.804;12.190;2023-04-29T14:02:01;11.90;80.10
24522;DHT22;12680;57.804;12.190;2023-04-29T14:04:31;11.90;79.40
24522;DHT22;12680;57.804;12.190;2023-04-29T14:06:59;12.00;79.80
24522;DHT22;12680;57.804;12.190;2023-04-29T14:09:26;12.00;78.90
24522;DHT22;12680;57.804;12.190;2023-04-29T14:11:53;12.00;77.90
24522;DHT22;12680;57.804;12.190;2023-04-29T14:14:20;12.00;79.10
24522;DHT22;12680;57.804;12.190;2023-04-29T14:16:46;12.70;80.10
24522;DHT22;12680;57.804;12.190;2023-04-29T14:19:13;12.10;79.80
24522;DHT22;12680;57.804;12.190;2023-04-29T14:21:40;12.10;77.50
24522;DHT22;12680;57.804;12.190;2023-04-29T14:24:07;12.10;76.20
24522;DHT22;12680;57.804;12.190;2023-04-29T14:26:33;12.10;74.30
24522;DHT22;12680;57.804;12.190;2023-04-29T14:29:02;12.10;75.20
24522;DHT22;12680;57.804;12.190;2023-04-29T14:31:30;13.60;77.10
24522;DHT22;12680;57.804;12.190;2023-04-29T14:33:59;13.20;75.70
24522;DHT22;12680;57.804;12.190;2023-04-29T14:36:25;12.60;75.30
24522;DHT22;12680;57.804;12.190;2023-04-29T14:38:53;12.10;73.40
24522;DHT22;12680;57.804;12.190;2023-04-29T14:41:20;12.10;72.40
24522;DHT22;12680;57.804;12.190;2023-04-29T14:43:47;12.00;72.50
24522;DHT22;12680;57.804;12.190;2023-04-29T14:46:14;12.00;73.70
24522;DHT22;12680;57.804;12.190;2023-04-29T14:48:41;12.10;72.70
24522;DHT22;12680;57.804;12.190;2023-04-29T14:51:08;13.40;72.80
24522;DHT22;12680;57.804;12.190;2023-04-29T14:53:35;12.00;71.10
24522;DHT22;12680;57.804;12.190;2023-04-29T14:56:02;11.90;70.50
24522;DHT22;12680;57.804;12.190;2023-04-29T14:58:29;11.90;71.70
24522;DHT22;12680;57.804;12.190;2023-04-29T15:00:56;11.90;70.30
24522;DHT22;12680;57.804;12.190;2023-04-29T15:03:23;11.80;70.90
24522;DHT22;12680;57.804;12.190;2023-04-29T15:05:50;11.80;70.70
24522;DHT22;12680;57.804;12.190;2023-04-29T15:08:18;13.50;72.30
24522;DHT22;12680;57.804;12.190;2023-04-29T15:10:45;11.80;71.80
24522;DHT22;12680;57.804;12.190;2023-04-29T15:13:13;11.90;71.00
24522;DHT22;12680;57.804;12.190;2023-04-29T15:15:40;12.60;72.20
24522;DHT22;12680;57.804;12.190;2023-04-29T15:18:07;12.00;72.00
24522;DHT22;12680;57.804;12.190;2023-04-29T15:20:35;13.00;73.20
24522;DHT22;12680;57.804;12.190;2023-04-29T15:23:03;12.10;72.30
24522;DHT22;12680;57.804;12.190;2023-04-29T15:25:31;12.20;72.80
24522;DHT22;12680;57.804;12.190;2023-04-29T15:28:02;12.20;72.30
24522;DHT22;12680;57.804;12.190;2023-04-29T15:30:31;12.20;72.90
24522;DHT22;12680;57.804;12.190;2023-04-29T15:32:58;12.60;72.80
24522;DHT22;12680;57.804;12.190;2023-04-29T15:35:25;12.10;72.80
24522;DHT22;12680;57.804;12.190;2023-04-29T15:37:53;12.10;73.20
24522;DHT22;12680;57.804;12.190;2023-04-29T15:40:19;12.10;73.20
24522;DHT22;12680;57.804;12.190;2023-04-29T15:42:46;12.10;72.70
24522;DHT22;12680;57.804;12.190;2023-04-29T15:45:13;12.00;72.40
24522;DHT22;12680;57.804;12.190;2023-04-29T15:47:40;12.10;71.90
24522;DHT22;12680;57.804;12.190;2023-04-29T15:50:07;12.10;72.10
24522;DHT22;12680;57.804;12.190;2023-04-29T15:52:36;12.20;71.80
24522;DHT22;12680;57.804;12.190;2023-04-29T15:55:04;12.20;71.80
24522;DHT22;12680;57.804;12.190;2023-04-29T15:57:30;12.20;71.70